Cape Cod — WBK3243 — position and weather

sailwx.info

Track history (hours):
 
Tides and Currents Weather Stations Pressure Air Temp Water Temp Dewpoint Dewpoint Depression Visibility Wind Speed Wind Dir Waves Ship Positions

Cape Cod

Owner: MORAN TOWING CORPORATION, New Canaan, CT. More information available from US FCC via Universal Licensing System and Coast Guard Vessel Documentation Center.

Last reported at 2016-Jul-30 01:33 UTC. Time now 2016-Jul-30 01:57 UTC.
Position N 39°53' W 075°11'.

Length 33 m; draft 4.8 m.

Type: Tug. MMSI: 366939770.

Date/timePositionNaut miles runAvg speedWind from/ knotsBaromVisibWave heightAir tempDewpointWater temp
2016-Jul-30 01:33N 39°53' W 075°11'0 0.0
2016-Jul-30 00:33N 39°53' W 075°11'0 0.0
2016-Jul-29 23:33N 39°53' W 075°11'0 0.0
2016-Jul-29 22:33N 39°53' W 075°11'4 4.4
2016-Jul-29 21:33N 39°51' W 075°16'1010.5
2016-Jul-29 20:34N 39°47' W 075°28'9 8.5
2016-Jul-29 19:33N 39°39' W 075°33'1110.7
2016-Jul-29 18:33N 39°28' W 075°34'1111.2
2016-Jul-29 17:33N 39°20' W 075°25'15 4.4
2016-Jul-29 14:05N 39°07' W 075°13'611.8
2016-Jul-29 13:33N 39°13' W 075°17'1111.0
2016-Jul-29 12:33N 39°21' W 075°26'9 9.1
2016-Jul-29 11:33N 39°28' W 075°34'8 8.3
2016-Jul-29 10:33N 39°36' W 075°34'8 8.0
2016-Jul-29 09:33N 39°44' W 075°30'9 9.0
2016-Jul-29 08:32N 39°50' W 075°22'1010.1
2016-Jul-29 07:33N 39°53' W 075°09'6 6.1
2016-Jul-29 06:33N 39°58' W 075°06'1 0.3
2016-Jul-29 04:33N 39°58' W 075°07'0 0.0
2016-Jul-29 03:33N 39°58' W 075°07'0 0.0
2016-Jul-29 02:33N 39°58' W 075°07'0 0.0
2016-Jul-29 01:33N 39°58' W 075°07'0 0.0
2016-Jul-29 00:33N 39°58' W 075°07'2 1.8
2016-Jul-28 23:33N 39°59' W 075°04'0 0.0
2016-Jul-28 22:33N 39°59' W 075°04'5 5.3
2016-Jul-28 21:33N 39°54' W 075°08'2 2.3
2016-Jul-28 20:33N 39°53' W 075°11'0 0.0
2016-Jul-28 19:33N 39°53' W 075°11'0 0.0
2016-Jul-28 18:33N 39°53' W 075°11'0 0.0
2016-Jul-28 17:33N 39°53' W 075°11'0 0.0
2016-Jul-28 16:33N 39°53' W 075°11'0 0.0
2016-Jul-28 15:33N 39°53' W 075°11'0 0.0
2016-Jul-28 14:33N 39°53' W 075°11'0 0.0
2016-Jul-28 13:33N 39°53' W 075°11'0 0.0
2016-Jul-28 12:33N 39°53' W 075°11'0 0.0
2016-Jul-28 11:33N 39°53' W 075°11'0 0.0
2016-Jul-28 10:33N 39°53' W 075°11'0 0.0
2016-Jul-28 09:34N 39°53' W 075°11'0 0.0
2016-Jul-28 08:33N 39°53' W 075°11'0 0.0
2016-Jul-28 07:33N 39°53' W 075°11'0 0.0
2016-Jul-28 06:33N 39°53' W 075°11'0 0.0
2016-Jul-28 05:33N 39°53' W 075°11'0 0.0
2016-Jul-28 04:33N 39°53' W 075°11'1 0.7
2016-Jul-28 03:33N 39°53' W 075°10'9 9.5
2016-Jul-28 02:33N 40°01' W 075°03'10 4.2
2016-Jul-28 00:08N 40°06' W 074°51'610.0
2016-Jul-27 23:33N 40°03' W 074°58'9 8.7
2016-Jul-27 22:34N 39°58' W 075°07'6 5.8
2016-Jul-27 21:33N 39°53' W 075°10'0 0.4
2016-Jul-27 20:33N 39°53' W 075°11'0 0.0
2016-Jul-27 19:33N 39°53' W 075°11'0 0.0
2016-Jul-27 18:33N 39°53' W 075°11'0 0.0
2016-Jul-27 17:33N 39°53' W 075°11'0 0.0
2016-Jul-27 16:34N 39°53' W 075°11'1 1.0
2016-Jul-27 15:33N 39°53' W 075°09'7 6.9
2016-Jul-27 14:33N 39°59' W 075°04'0 0.1
2016-Jul-27 13:33N 39°59' W 075°04'2 1.6
2016-Jul-27 12:33N 39°58' W 075°06'1 1.1
2016-Jul-27 11:33N 39°59' W 075°05'0 0.0
2016-Jul-27 10:33N 39°59' W 075°05'0 0.0
2016-Jul-27 09:33N 39°59' W 075°05'1 1.3
2016-Jul-27 08:33N 39°58' W 075°07'1 0.6
2016-Jul-27 07:33N 39°58' W 075°07'5 5.4
2016-Jul-27 06:33N 39°53' W 075°11'0 0.0
2016-Jul-27 05:33N 39°53' W 075°11'0 0.0
2016-Jul-27 04:33N 39°53' W 075°11'0 0.0
2016-Jul-27 03:33N 39°53' W 075°11'0 0.0
2016-Jul-27 02:33N 39°53' W 075°11'0 0.0
2016-Jul-27 01:33N 39°53' W 075°11'0 0.0
2016-Jul-27 00:33N 39°53' W 075°11'0 0.0
2016-Jul-26 23:33N 39°53' W 075°11'0 0.0
2016-Jul-26 22:33N 39°53' W 075°11'0 0.0
2016-Jul-26 21:33N 39°53' W 075°11'0 0.0
2016-Jul-26 20:33N 39°53' W 075°11'0 0.0
2016-Jul-26 19:33N 39°53' W 075°11'0 0.0
2016-Jul-26 18:33N 39°53' W 075°11'0 0.0
2016-Jul-26 17:33N 39°53' W 075°11'0 0.0
2016-Jul-26 16:33N 39°53' W 075°11'0 0.0
2016-Jul-26 15:33N 39°53' W 075°11'0 0.0
2016-Jul-26 14:33N 39°53' W 075°11'0 0.0
2016-Jul-26 13:34N 39°53' W 075°11'0 0.0
2016-Jul-26 12:33N 39°53' W 075°11'0 0.0
2016-Jul-26 11:33N 39°53' W 075°11'0 0.0
2016-Jul-26 10:33N 39°53' W 075°11'0 0.0
2016-Jul-26 09:33N 39°53' W 075°11'0 0.0
2016-Jul-26 08:33N 39°53' W 075°11'0 0.0
2016-Jul-26 07:33N 39°53' W 075°11'0 0.0
2016-Jul-26 06:33N 39°53' W 075°11'0 0.0
2016-Jul-26 05:33N 39°53' W 075°11'0 0.0
2016-Jul-26 04:33N 39°53' W 075°11'0 0.0
2016-Jul-26 03:33N 39°53' W 075°11'0 0.0
2016-Jul-26 02:33N 39°53' W 075°11'0 0.0
2016-Jul-26 01:33N 39°53' W 075°11'0 0.0
2016-Jul-26 00:33N 39°53' W 075°11'0 0.0
2016-Jul-25 23:33N 39°53' W 075°11'0 0.0
2016-Jul-25 22:34N 39°53' W 075°11'8 8.2
2016-Jul-25 21:33N 39°51' W 075°21'1313.0
2016-Jul-25 20:34N 39°40' W 075°32'6 6.2
2016-Jul-25 19:33N 39°35' W 075°35'0 0.5
2016-Jul-25 18:33N 39°35' W 075°36'1 1.4
2016-Jul-25 17:33N 39°35' W 075°34'1110.6
2016-Jul-25 16:33N 39°45' W 075°29'1211.9
2016-Jul-25 15:33N 39°51' W 075°15'4 4.3
2016-Jul-25 14:34N 39°53' W 075°11'0 0.0
2016-Jul-25 13:33N 39°53' W 075°11'1 0.8
2016-Jul-25 12:34N 39°54' W 075°12'6 6.3
2016-Jul-25 11:34N 39°51' W 075°19'3 2.9
2016-Jul-25 10:34N 39°50' W 075°22'2 2.2
2016-Jul-25 09:34N 39°51' W 075°20'2 1.7
2016-Jul-25 08:33N 39°51' W 075°18'4 4.0
2016-Jul-25 07:32N 39°52' W 075°13'2 2.2
2016-Jul-25 06:34N 39°53' W 075°11'0 0.0
2016-Jul-25 05:33N 39°53' W 075°11'0 0.0
2016-Jul-25 04:34N 39°53' W 075°11'0 0.0
2016-Jul-25 03:33N 39°53' W 075°11'0 0.0
2016-Jul-25 02:33N 39°53' W 075°11'7 6.6
2016-Jul-25 01:33N 39°51' W 075°19'10 9.9
2016-Jul-25 00:33N 39°45' W 075°29'1010.1
2016-Jul-24 23:34N 39°36' W 075°34'1 1.3
2016-Jul-24 22:33N 39°35' W 075°35'1 0.6
2016-Jul-24 21:34N 39°35' W 075°35'1 1.0
2016-Jul-24 20:34N 39°35' W 075°34'6 6.3
2016-Jul-24 19:33N 39°41' W 075°31'9 8.8
2016-Jul-24 18:33N 39°49' W 075°24'9 8.7
2016-Jul-24 17:33N 39°52' W 075°14'3 2.9
2016-Jul-24 16:33N 39°53' W 075°11'0 0.0
2016-Jul-24 15:33N 39°53' W 075°11'0 0.0
2016-Jul-24 14:33N 39°53' W 075°11'0 0.0
2016-Jul-24 13:33N 39°53' W 075°11'0 0.0
2016-Jul-24 12:34N 39°53' W 075°11'0 0.0
2016-Jul-24 11:33N 39°53' W 075°11'0 0.0
2016-Jul-24 10:33N 39°53' W 075°11'0 0.0
2016-Jul-24 09:33N 39°53' W 075°11'0 0.0
2016-Jul-24 08:33N 39°53' W 075°11'0 0.0
2016-Jul-24 07:33N 39°53' W 075°11'0 0.0
2016-Jul-24 06:33N 39°53' W 075°11'0 0.0
2016-Jul-24 05:33N 39°53' W 075°11'0 0.0
2016-Jul-24 04:33N 39°53' W 075°11'0 0.0
2016-Jul-24 03:33N 39°53' W 075°11'0 0.0
2016-Jul-24 02:33N 39°53' W 075°11'0 0.0
2016-Jul-24 01:33N 39°53' W 075°11'0 0.0
2016-Jul-24 00:34N 39°53' W 075°11'0 0.0
2016-Jul-23 23:33N 39°53' W 075°11'0 0.0
2016-Jul-23 22:33N 39°53' W 075°11'0 0.0
2016-Jul-23 21:33N 39°53' W 075°11'0 0.0
2016-Jul-23 20:33N 39°53' W 075°11'0 0.0
2016-Jul-23 19:33N 39°53' W 075°11'0 0.0
2016-Jul-23 18:33N 39°53' W 075°11'0 0.0
2016-Jul-23 17:33N 39°53' W 075°11'0 0.0
2016-Jul-23 16:33N 39°53' W 075°11'0 0.0
2016-Jul-23 15:33N 39°53' W 075°11'0 0.0
2016-Jul-23 14:33N 39°53' W 075°11'0 0.0
2016-Jul-23 13:33N 39°53' W 075°11'0 0.0
2016-Jul-23 12:33N 39°53' W 075°11'0 0.0
2016-Jul-23 11:33N 39°53' W 075°11'1 1.4
2016-Jul-23 10:33N 39°52' W 075°12'1010.5
2016-Jul-23 09:33N 39°48' W 075°25'1211.7
2016-Jul-23 08:33N 39°39' W 075°33'4 4.0
2016-Jul-23 07:33N 39°35' W 075°35'0 0.1
2016-Jul-23 06:33N 39°35' W 075°35'13 6.6
2016-Jul-23 04:33N 39°47' W 075°28'10 9.7
2016-Jul-23 03:33N 39°51' W 075°16'5 4.9
2016-Jul-23 02:33N 39°53' W 075°11'0 0.0
2016-Jul-23 01:32N 39°53' W 075°11'0 0.0
2016-Jul-23 00:33N 39°53' W 075°11'0 0.0
2016-Jul-22 23:33N 39°53' W 075°11'0 0.0
2016-Jul-22 22:33N 39°53' W 075°11'0 0.0
2016-Jul-22 21:33N 39°53' W 075°11'0 0.0
2016-Jul-22 20:33N 39°53' W 075°11'4 4.0
2016-Jul-22 19:33N 39°51' W 075°15'1313.1
2016-Jul-22 18:33N 39°44' W 075°30'1313.1
2016-Jul-22 17:33N 39°32' W 075°33'1413.6
2016-Jul-22 16:33N 39°20' W 075°24'2511.4
2016-Jul-22 14:23N 38°58' W 075°07'9 8.5
2016-Jul-22 13:20N 39°06' W 075°12'7 9.0
2016-Jul-22 12:33N 39°12' W 075°17'1110.7
2016-Jul-22 11:34N 39°21' W 075°26'1111.2
2016-Jul-22 10:33N 39°30' W 075°33'1010.5
2016-Jul-22 09:34N 39°41' W 075°31'1110.6
2016-Jul-22 08:33N 39°49' W 075°23'9 9.0
2016-Jul-22 07:33N 39°52' W 075°12'7 3.6
2016-Jul-22 05:33N 39°58' W 075°07'0 0.0
2016-Jul-22 04:33N 39°58' W 075°07'0 0.0
2016-Jul-22 03:33N 39°58' W 075°07'3 2.5
2016-Jul-22 02:33N 39°56' W 075°08'8 8.1
2016-Jul-22 01:33N 39°51' W 075°17'1 0.6
2016-Jul-22 00:33N 39°51' W 075°16'5 4.7
2016-Jul-21 23:33N 39°53' W 075°11'0 0.0
2016-Jul-21 22:34N 39°53' W 075°11'0 0.0
2016-Jul-21 21:34N 39°53' W 075°11'0 0.0
2016-Jul-21 20:34N 39°53' W 075°11'0 0.0
2016-Jul-21 19:34N 39°53' W 075°11'0 0.0
2016-Jul-21 18:33N 39°53' W 075°11'0 0.0
2016-Jul-21 17:33N 39°53' W 075°11'0 0.0
2016-Jul-21 16:33N 39°53' W 075°11'1 1.3
2016-Jul-21 15:34N 39°54' W 075°12'0 0.0
2016-Jul-21 14:33N 39°54' W 075°12'0 0.0
2016-Jul-21 13:34N 39°54' W 075°12'0 0.0
2016-Jul-21 12:33N 39°54' W 075°12'0 0.0
2016-Jul-21 11:34N 39°54' W 075°12'3 2.8
2016-Jul-21 10:34N 39°51' W 075°14'2 1.5
2016-Jul-21 09:33N 39°51' W 075°16'0 0.2
2016-Jul-21 08:33N 39°51' W 075°16'2 2.1
2016-Jul-21 07:33N 39°52' W 075°14'3 3.0
2016-Jul-21 06:33N 39°53' W 075°11'0 0.0
2016-Jul-21 05:33N 39°53' W 075°11'0 0.0
2016-Jul-21 04:33N 39°53' W 075°11'0 0.0
2016-Jul-21 03:33N 39°53' W 075°11'0 0.0
2016-Jul-21 02:33N 39°53' W 075°11'0 0.0
2016-Jul-21 01:34N 39°53' W 075°11'0 0.0
2016-Jul-21 00:34N 39°53' W 075°11'0 0.0
2016-Jul-20 23:33N 39°53' W 075°11'0 0.0
2016-Jul-20 22:34N 39°53' W 075°11'0 0.0
2016-Jul-20 21:33N 39°53' W 075°11'0 0.0
2016-Jul-20 20:33N 39°53' W 075°11'0 0.0
2016-Jul-20 19:33N 39°53' W 075°11'0 0.0
2016-Jul-20 18:33N 39°53' W 075°11'0 0.0
2016-Jul-20 17:33N 39°53' W 075°11'0 0.0
2016-Jul-20 16:33N 39°53' W 075°11'2 2.5
2016-Jul-20 15:33N 39°54' W 075°08'0 0.3
2016-Jul-20 14:33N 39°54' W 075°08'0 0.0
2016-Jul-20 13:33N 39°54' W 075°08'0 0.0
2016-Jul-20 12:34N 39°54' W 075°08'4 3.9
2016-Jul-20 11:33N 39°58' W 075°07'2 2.0
2016-Jul-20 10:34N 39°56' W 075°08'5 5.5
2016-Jul-20 09:34N 39°52' W 075°13'7 7.1
2016-Jul-20 08:33N 39°50' W 075°22'8 7.7
2016-Jul-20 07:34N 39°45' W 075°29'8 7.9
2016-Jul-20 06:34N 39°38' W 075°34'7 7.1
2016-Jul-20 05:33N 39°31' W 075°33'7 6.8
2016-Jul-20 04:33N 39°25' W 075°30'  
Track history (hours):
 
Tides and Currents Weather Stations Pressure Air Temp Water Temp Dewpoint Dewpoint Depression Visibility Wind Speed Wind Dir Waves Ship Positions

Cape Cod

Owner: MORAN TOWING CORPORATION, New Canaan, CT. More information available from US FCC via Universal Licensing System and Coast Guard Vessel Documentation Center.

Last reported at 2016-Jul-30 01:33 UTC. Time now 2016-Jul-30 01:57 UTC.
Position N 39°53' W 075°11'.

Length 33 m; draft 4.8 m.

Type: Tug. MMSI: 366939770.

Date/timePositionNaut miles runAvg speedWind from/ knotsBaromVisibWave heightAir tempDewpointWater temp
2016-Jul-30 01:33N 39°53' W 075°11'0 0.0
2016-Jul-30 00:33N 39°53' W 075°11'0 0.0
2016-Jul-29 23:33N 39°53' W 075°11'0 0.0
2016-Jul-29 22:33N 39°53' W 075°11'4 4.4
2016-Jul-29 21:33N 39°51' W 075°16'1010.5
2016-Jul-29 20:34N 39°47' W 075°28'9 8.5
2016-Jul-29 19:33N 39°39' W 075°33'1110.7
2016-Jul-29 18:33N 39°28' W 075°34'1111.2
2016-Jul-29 17:33N 39°20' W 075°25'15 4.4
2016-Jul-29 14:05N 39°07' W 075°13'611.8
2016-Jul-29 13:33N 39°13' W 075°17'1111.0
2016-Jul-29 12:33N 39°21' W 075°26'9 9.1
2016-Jul-29 11:33N 39°28' W 075°34'8 8.3
2016-Jul-29 10:33N 39°36' W 075°34'8 8.0
2016-Jul-29 09:33N 39°44' W 075°30'9 9.0
2016-Jul-29 08:32N 39°50' W 075°22'1010.1
2016-Jul-29 07:33N 39°53' W 075°09'6 6.1
2016-Jul-29 06:33N 39°58' W 075°06'1 0.3
2016-Jul-29 04:33N 39°58' W 075°07'0 0.0
2016-Jul-29 03:33N 39°58' W 075°07'0 0.0
2016-Jul-29 02:33N 39°58' W 075°07'0 0.0
2016-Jul-29 01:33N 39°58' W 075°07'0 0.0
2016-Jul-29 00:33N 39°58' W 075°07'2 1.8
2016-Jul-28 23:33N 39°59' W 075°04'0 0.0
2016-Jul-28 22:33N 39°59' W 075°04'5 5.3
2016-Jul-28 21:33N 39°54' W 075°08'2 2.3
2016-Jul-28 20:33N 39°53' W 075°11'0 0.0
2016-Jul-28 19:33N 39°53' W 075°11'0 0.0
2016-Jul-28 18:33N 39°53' W 075°11'0 0.0
2016-Jul-28 17:33N 39°53' W 075°11'0 0.0
2016-Jul-28 16:33N 39°53' W 075°11'0 0.0
2016-Jul-28 15:33N 39°53' W 075°11'0 0.0
2016-Jul-28 14:33N 39°53' W 075°11'0 0.0
2016-Jul-28 13:33N 39°53' W 075°11'0 0.0
2016-Jul-28 12:33N 39°53' W 075°11'0 0.0
2016-Jul-28 11:33N 39°53' W 075°11'0 0.0
2016-Jul-28 10:33N 39°53' W 075°11'0 0.0
2016-Jul-28 09:34N 39°53' W 075°11'0 0.0
2016-Jul-28 08:33N 39°53' W 075°11'0 0.0
2016-Jul-28 07:33N 39°53' W 075°11'0 0.0
2016-Jul-28 06:33N 39°53' W 075°11'0 0.0
2016-Jul-28 05:33N 39°53' W 075°11'0 0.0
2016-Jul-28 04:33N 39°53' W 075°11'1 0.7
2016-Jul-28 03:33N 39°53' W 075°10'9 9.5
2016-Jul-28 02:33N 40°01' W 075°03'10 4.2
2016-Jul-28 00:08N 40°06' W 074°51'610.0
2016-Jul-27 23:33N 40°03' W 074°58'9 8.7
2016-Jul-27 22:34N 39°58' W 075°07'6 5.8
2016-Jul-27 21:33N 39°53' W 075°10'0 0.4
2016-Jul-27 20:33N 39°53' W 075°11'0 0.0
2016-Jul-27 19:33N 39°53' W 075°11'0 0.0
2016-Jul-27 18:33N 39°53' W 075°11'0 0.0
2016-Jul-27 17:33N 39°53' W 075°11'0 0.0
2016-Jul-27 16:34N 39°53' W 075°11'1 1.0
2016-Jul-27 15:33N 39°53' W 075°09'7 6.9
2016-Jul-27 14:33N 39°59' W 075°04'0 0.1
2016-Jul-27 13:33N 39°59' W 075°04'2 1.6
2016-Jul-27 12:33N 39°58' W 075°06'1 1.1
2016-Jul-27 11:33N 39°59' W 075°05'0 0.0
2016-Jul-27 10:33N 39°59' W 075°05'0 0.0
2016-Jul-27 09:33N 39°59' W 075°05'1 1.3
2016-Jul-27 08:33N 39°58' W 075°07'1 0.6
2016-Jul-27 07:33N 39°58' W 075°07'5 5.4
2016-Jul-27 06:33N 39°53' W 075°11'0 0.0
2016-Jul-27 05:33N 39°53' W 075°11'0 0.0
2016-Jul-27 04:33N 39°53' W 075°11'0 0.0
2016-Jul-27 03:33N 39°53' W 075°11'0 0.0
2016-Jul-27 02:33N 39°53' W 075°11'0 0.0
2016-Jul-27 01:33N 39°53' W 075°11'0 0.0
2016-Jul-27 00:33N 39°53' W 075°11'0 0.0
2016-Jul-26 23:33N 39°53' W 075°11'0 0.0
2016-Jul-26 22:33N 39°53' W 075°11'0 0.0
2016-Jul-26 21:33N 39°53' W 075°11'0 0.0
2016-Jul-26 20:33N 39°53' W 075°11'0 0.0
2016-Jul-26 19:33N 39°53' W 075°11'0 0.0
2016-Jul-26 18:33N 39°53' W 075°11'0 0.0
2016-Jul-26 17:33N 39°53' W 075°11'0 0.0
2016-Jul-26 16:33N 39°53' W 075°11'0 0.0
2016-Jul-26 15:33N 39°53' W 075°11'0 0.0
2016-Jul-26 14:33N 39°53' W 075°11'0 0.0
2016-Jul-26 13:34N 39°53' W 075°11'0 0.0
2016-Jul-26 12:33N 39°53' W 075°11'0 0.0
2016-Jul-26 11:33N 39°53' W 075°11'0 0.0
2016-Jul-26 10:33N 39°53' W 075°11'0 0.0
2016-Jul-26 09:33N 39°53' W 075°11'0 0.0
2016-Jul-26 08:33N 39°53' W 075°11'0 0.0
2016-Jul-26 07:33N 39°53' W 075°11'0 0.0
2016-Jul-26 06:33N 39°53' W 075°11'0 0.0
2016-Jul-26 05:33N 39°53' W 075°11'0 0.0
2016-Jul-26 04:33N 39°53' W 075°11'0 0.0
2016-Jul-26 03:33N 39°53' W 075°11'0 0.0
2016-Jul-26 02:33N 39°53' W 075°11'0 0.0
2016-Jul-26 01:33N 39°53' W 075°11'0 0.0
2016-Jul-26 00:33N 39°53' W 075°11'0 0.0
2016-Jul-25 23:33N 39°53' W 075°11'0 0.0
2016-Jul-25 22:34N 39°53' W 075°11'8 8.2
2016-Jul-25 21:33N 39°51' W 075°21'1313.0
2016-Jul-25 20:34N 39°40' W 075°32'6 6.2
2016-Jul-25 19:33N 39°35' W 075°35'0 0.5
2016-Jul-25 18:33N 39°35' W 075°36'1 1.4
2016-Jul-25 17:33N 39°35' W 075°34'1110.6
2016-Jul-25 16:33N 39°45' W 075°29'1211.9
2016-Jul-25 15:33N 39°51' W 075°15'4 4.3
2016-Jul-25 14:34N 39°53' W 075°11'0 0.0
2016-Jul-25 13:33N 39°53' W 075°11'1 0.8
2016-Jul-25 12:34N 39°54' W 075°12'6 6.3
2016-Jul-25 11:34N 39°51' W 075°19'3 2.9
2016-Jul-25 10:34N 39°50' W 075°22'2 2.2
2016-Jul-25 09:34N 39°51' W 075°20'2 1.7
2016-Jul-25 08:33N 39°51' W 075°18'4 4.0
2016-Jul-25 07:32N 39°52' W 075°13'2 2.2
2016-Jul-25 06:34N 39°53' W 075°11'0 0.0
2016-Jul-25 05:33N 39°53' W 075°11'0 0.0
2016-Jul-25 04:34N 39°53' W 075°11'0 0.0
2016-Jul-25 03:33N 39°53' W 075°11'0 0.0
2016-Jul-25 02:33N 39°53' W 075°11'7 6.6
2016-Jul-25 01:33N 39°51' W 075°19'10 9.9
2016-Jul-25 00:33N 39°45' W 075°29'1010.1
2016-Jul-24 23:34N 39°36' W 075°34'1 1.3
2016-Jul-24 22:33N 39°35' W 075°35'1 0.6
2016-Jul-24 21:34N 39°35' W 075°35'1 1.0
2016-Jul-24 20:34N 39°35' W 075°34'6 6.3
2016-Jul-24 19:33N 39°41' W 075°31'9 8.8
2016-Jul-24 18:33N 39°49' W 075°24'9 8.7
2016-Jul-24 17:33N 39°52' W 075°14'3 2.9
2016-Jul-24 16:33N 39°53' W 075°11'0 0.0
2016-Jul-24 15:33N 39°53' W 075°11'0 0.0
2016-Jul-24 14:33N 39°53' W 075°11'0 0.0
2016-Jul-24 13:33N 39°53' W 075°11'0 0.0
2016-Jul-24 12:34N 39°53' W 075°11'0 0.0
2016-Jul-24 11:33N 39°53' W 075°11'0 0.0
2016-Jul-24 10:33N 39°53' W 075°11'0 0.0
2016-Jul-24 09:33N 39°53' W 075°11'0 0.0
2016-Jul-24 08:33N 39°53' W 075°11'0 0.0
2016-Jul-24 07:33N 39°53' W 075°11'0 0.0
2016-Jul-24 06:33N 39°53' W 075°11'0 0.0
2016-Jul-24 05:33N 39°53' W 075°11'0 0.0
2016-Jul-24 04:33N 39°53' W 075°11'0 0.0
2016-Jul-24 03:33N 39°53' W 075°11'0 0.0
2016-Jul-24 02:33N 39°53' W 075°11'0 0.0
2016-Jul-24 01:33N 39°53' W 075°11'0 0.0
2016-Jul-24 00:34N 39°53' W 075°11'0 0.0
2016-Jul-23 23:33N 39°53' W 075°11'0 0.0
2016-Jul-23 22:33N 39°53' W 075°11'0 0.0
2016-Jul-23 21:33N 39°53' W 075°11'0 0.0
2016-Jul-23 20:33N 39°53' W 075°11'0 0.0
2016-Jul-23 19:33N 39°53' W 075°11'0 0.0
2016-Jul-23 18:33N 39°53' W 075°11'0 0.0
2016-Jul-23 17:33N 39°53' W 075°11'0 0.0
2016-Jul-23 16:33N 39°53' W 075°11'0 0.0
2016-Jul-23 15:33N 39°53' W 075°11'0 0.0
2016-Jul-23 14:33N 39°53' W 075°11'0 0.0
2016-Jul-23 13:33N 39°53' W 075°11'0 0.0
2016-Jul-23 12:33N 39°53' W 075°11'0 0.0
2016-Jul-23 11:33N 39°53' W 075°11'1 1.4
2016-Jul-23 10:33N 39°52' W 075°12'1010.5
2016-Jul-23 09:33N 39°48' W 075°25'1211.7
2016-Jul-23 08:33N 39°39' W 075°33'4 4.0
2016-Jul-23 07:33N 39°35' W 075°35'0 0.1
2016-Jul-23 06:33N 39°35' W 075°35'13 6.6
2016-Jul-23 04:33N 39°47' W 075°28'10 9.7
2016-Jul-23 03:33N 39°51' W 075°16'5 4.9
2016-Jul-23 02:33N 39°53' W 075°11'0 0.0
2016-Jul-23 01:32N 39°53' W 075°11'0 0.0
2016-Jul-23 00:33N 39°53' W 075°11'0 0.0
2016-Jul-22 23:33N 39°53' W 075°11'0 0.0
2016-Jul-22 22:33N 39°53' W 075°11'0 0.0
2016-Jul-22 21:33N 39°53' W 075°11'0 0.0
2016-Jul-22 20:33N 39°53' W 075°11'4 4.0
2016-Jul-22 19:33N 39°51' W 075°15'1313.1
2016-Jul-22 18:33N 39°44' W 075°30'1313.1
2016-Jul-22 17:33N 39°32' W 075°33'1413.6
2016-Jul-22 16:33N 39°20' W 075°24'2511.4
2016-Jul-22 14:23N 38°58' W 075°07'9 8.5
2016-Jul-22 13:20N 39°06' W 075°12'7 9.0
2016-Jul-22 12:33N 39°12' W 075°17'1110.7
2016-Jul-22 11:34N 39°21' W 075°26'1111.2
2016-Jul-22 10:33N 39°30' W 075°33'1010.5
2016-Jul-22 09:34N 39°41' W 075°31'1110.6
2016-Jul-22 08:33N 39°49' W 075°23'9 9.0
2016-Jul-22 07:33N 39°52' W 075°12'7 3.6
2016-Jul-22 05:33N 39°58' W 075°07'0 0.0
2016-Jul-22 04:33N 39°58' W 075°07'0 0.0
2016-Jul-22 03:33N 39°58' W 075°07'3 2.5
2016-Jul-22 02:33N 39°56' W 075°08'8 8.1
2016-Jul-22 01:33N 39°51' W 075°17'1 0.6
2016-Jul-22 00:33N 39°51' W 075°16'5 4.7
2016-Jul-21 23:33N 39°53' W 075°11'0 0.0
2016-Jul-21 22:34N 39°53' W 075°11'0 0.0
2016-Jul-21 21:34N 39°53' W 075°11'0 0.0
2016-Jul-21 20:34N 39°53' W 075°11'0 0.0
2016-Jul-21 19:34N 39°53' W 075°11'0 0.0
2016-Jul-21 18:33N 39°53' W 075°11'0 0.0
2016-Jul-21 17:33N 39°53' W 075°11'0 0.0
2016-Jul-21 16:33N 39°53' W 075°11'1 1.3
2016-Jul-21 15:34N 39°54' W 075°12'0 0.0
2016-Jul-21 14:33N 39°54' W 075°12'0 0.0
2016-Jul-21 13:34N 39°54' W 075°12'0 0.0
2016-Jul-21 12:33N 39°54' W 075°12'0 0.0
2016-Jul-21 11:34N 39°54' W 075°12'3 2.8
2016-Jul-21 10:34N 39°51' W 075°14'2 1.5
2016-Jul-21 09:33N 39°51' W 075°16'0 0.2
2016-Jul-21 08:33N 39°51' W 075°16'2 2.1
2016-Jul-21 07:33N 39°52' W 075°14'3 3.0
2016-Jul-21 06:33N 39°53' W 075°11'0 0.0
2016-Jul-21 05:33N 39°53' W 075°11'0 0.0
2016-Jul-21 04:33N 39°53' W 075°11'0 0.0
2016-Jul-21 03:33N 39°53' W 075°11'0 0.0
2016-Jul-21 02:33N 39°53' W 075°11'0 0.0
2016-Jul-21 01:34N 39°53' W 075°11'0 0.0
2016-Jul-21 00:34N 39°53' W 075°11'0 0.0
2016-Jul-20 23:33N 39°53' W 075°11'0 0.0
2016-Jul-20 22:34N 39°53' W 075°11'0 0.0
2016-Jul-20 21:33N 39°53' W 075°11'0 0.0
2016-Jul-20 20:33N 39°53' W 075°11'0 0.0
2016-Jul-20 19:33N 39°53' W 075°11'0 0.0
2016-Jul-20 18:33N 39°53' W 075°11'0 0.0
2016-Jul-20 17:33N 39°53' W 075°11'0 0.0
2016-Jul-20 16:33N 39°53' W 075°11'2 2.5
2016-Jul-20 15:33N 39°54' W 075°08'0 0.3
2016-Jul-20 14:33N 39°54' W 075°08'0 0.0
2016-Jul-20 13:33N 39°54' W 075°08'0 0.0
2016-Jul-20 12:34N 39°54' W 075°08'4 3.9
2016-Jul-20 11:33N 39°58' W 075°07'2 2.0
2016-Jul-20 10:34N 39°56' W 075°08'5 5.5
2016-Jul-20 09:34N 39°52' W 075°13'7 7.1
2016-Jul-20 08:33N 39°50' W 075°22'8 7.7
2016-Jul-20 07:34N 39°45' W 075°29'8 7.9
2016-Jul-20 06:34N 39°38' W 075°34'7 7.1
2016-Jul-20 05:33N 39°31' W 075°33'7 6.8
2016-Jul-20 04:33N 39°25' W 075°30'  

Dump ship's entire track history